Time;durP1;ratioP1;P1;durP2;ratioP2;P2;SDS_P1;SDS_P2;PMS_P1;PMS_P2;Temp;Humidity;BMP_temperature;BMP_pressure;BME280_temperature;BME280_humidity;BME280_pressure;Samples;Min_cycle;Max_cycle;Signal;HPM_P1;HPM_P2
2024/01/02 00:01:27;;;;;;;28.57;15.93;;;;;;;4.31;96.21;99436.63;4993366;28;20756;-60
2024/01/02 00:03:54;;;;;;;28.53;14.97;;;;;;;4.30;96.13;99432.34;4991912;28;20258;-57
2024/01/02 00:06:22;;;;;;;32.03;15.87;;;;;;;4.28;96.29;99436.63;4992922;28;20247;-55
2024/01/02 00:08:51;;;;;;;28.17;15.07;;;;;;;4.28;96.34;99439.16;4992746;28;20207;-53
2024/01/02 00:11:19;;;;;;;27.37;15.70;;;;;;;4.29;96.10;99451.06;4993148;28;20214;-55
2024/01/02 00:13:47;;;;;;;27.43;15.27;;;;;;;4.29;96.26;99443.41;4993003;28;20228;-52
2024/01/02 00:16:17;;;;;;;26.53;14.63;;;;;;;4.30;95.88;99440.00;4992787;28;20204;-56
2024/01/02 00:18:45;;;;;;;26.33;14.43;;;;;;;4.29;96.27;99442.56;4989358;28;20235;-53
2024/01/02 00:21:13;;;;;;;24.60;15.23;;;;;;;4.29;96.28;99445.13;4991924;28;20266;-57
2024/01/02 00:23:41;;;;;;;26.30;14.53;;;;;;;4.32;96.04;99450.22;4992545;28;20247;-55
2024/01/02 00:26:10;;;;;;;27.07;13.77;;;;;;;4.30;96.11;99447.66;4992833;28;20643;-57
2024/01/02 00:28:37;;;;;;;29.57;14.90;;;;;;;4.31;96.04;99448.53;4992796;28;20678;-59
2024/01/02 00:31:05;;;;;;;29.07;15.23;;;;;;;4.31;95.83;99448.53;4992460;28;20207;-57
2024/01/02 00:33:35;;;;;;;26.40;14.73;;;;;;;4.29;95.88;99445.97;4992886;28;20224;-55
2024/01/02 00:36:03;;;;;;;25.37;14.57;;;;;;;4.29;95.96;99448.50;4992961;28;20212;-54
2024/01/02 00:38:33;;;;;;;23.17;13.93;;;;;;;4.30;95.78;99452.75;4991744;28;20647;-52
2024/01/02 00:41:01;;;;;;;22.87;14.03;;;;;;;4.32;96.46;99452.78;4984351;28;20214;-54
2024/01/02 00:43:29;;;;;;;27.57;15.00;;;;;;;4.33;95.87;99459.59;4992226;28;20231;-55
2024/01/02 00:45:59;;;;;;;24.50;13.30;;;;;;;4.32;96.12;99461.28;4992537;28;20262;-56
2024/01/02 00:48:28;;;;;;;30.40;14.67;;;;;;;4.30;95.80;99462.13;4992349;28;20215;-55
2024/01/02 00:50:58;;;;;;;27.63;14.57;;;;;;;4.34;96.13;99458.72;4992265;28;20597;-53
2024/01/02 00:53:28;;;;;;;24.90;14.30;;;;;;;4.33;95.99;99460.44;4992461;28;20230;-56
2024/01/02 00:55:56;;;;;;;24.97;13.90;;;;;;;4.33;95.87;99457.03;4980928;28;20234;-58
2024/01/02 00:58:24;;;;;;;26.87;14.00;;;;;;;4.31;95.14;99459.59;4992421;28;20211;-52
2024/01/02 01:00:53;;;;;;;24.70;14.80;;;;;;;4.30;95.82;99467.22;4996270;28;20219;-55
2024/01/02 01:03:21;;;;;;;23.73;13.90;;;;;;;4.29;95.98;99468.06;4996510;28;20663;-58
2024/01/02 01:05:49;;;;;;;22.40;12.80;;;;;;;4.31;95.81;99467.25;4996518;28;20740;-53
2024/01/02 01:08:18;;;;;;;29.17;13.97;;;;;;;4.32;96.23;99461.28;4996214;28;20213;-56
2024/01/02 01:10:46;;;;;;;25.93;13.40;;;;;;;4.33;96.27;99462.13;4995339;28;20212;-55
2024/01/02 01:13:15;;;;;;;25.20;13.83;;;;;;;4.34;96.33;99467.25;4995925;28;20278;-56
2024/01/02 01:15:43;;;;;;;22.17;12.17;;;;;;;4.36;96.18;99457.06;4996227;28;20210;-56
2024/01/02 01:18:11;;;;;;;24.43;13.10;;;;;;;4.36;96.26;99457.91;4995852;28;20203;-53
2024/01/02 01:20:39;;;;;;;23.83;13.73;;;;;;;4.35;95.85;99456.19;4996006;28;20204;-53
2024/01/02 01:23:07;;;;;;;26.73;13.73;;;;;;;4.34;95.92;99451.94;4995716;28;20427;-55
2024/01/02 01:25:37;;;;;;;22.20;12.37;;;;;;;4.32;96.05;99453.63;4996011;28;20730;-54
2024/01/02 01:28:05;;;;;;;21.80;13.00;;;;;;;4.33;96.30;99449.38;4994972;28;20228;-51
2024/01/02 01:30:33;;;;;;;25.07;13.07;;;;;;;4.34;96.10;99458.72;4996028;28;20204;-52
2024/01/02 01:33:01;;;;;;;23.70;13.43;;;;;;;4.39;96.41;99457.06;4995303;28;20204;-55
2024/01/02 01:35:33;;;;;;;26.97;14.10;;;;;;;4.41;96.14;99459.59;4995918;28;20239;-55
2024/01/02 01:38:01;;;;;;;26.03;13.73;;;;;;;4.40;96.45;99457.91;4995399;28;20231;-53
2024/01/02 01:40:32;;;;;;;24.20;13.13;;;;;;;4.41;96.16;99452.81;4995469;28;20208;-57
2024/01/02 01:43:02;;;;;;;24.07;12.70;;;;;;;4.43;96.03;99458.78;4994588;28;20286;-57
2024/01/02 01:45:30;;;;;;;20.47;12.20;;;;;;;4.43;95.99;99460.47;4995495;28;20207;-56
2024/01/02 01:47:58;;;;;;;25.80;13.47;;;;;;;4.42;95.77;99453.66;4995589;28;20203;-54
2024/01/02 01:50:30;;;;;;;23.13;12.53;;;;;;;4.42;95.38;99454.53;4995311;28;20543;-54
2024/01/02 01:52:58;;;;;;;24.03;14.20;;;;;;;4.43;95.71;99460.47;4995396;28;20335;-52
2024/01/02 01:55:27;;;;;;;22.70;12.93;;;;;;;4.41;95.47;99467.25;4995149;28;20234;-53
2024/01/02 01:57:55;;;;;;;25.00;13.13;;;;;;;4.39;95.28;99462.16;4995446;28;20579;-57
2024/01/02 02:00:24;;;;;;;22.70;11.93;;;;;;;4.39;95.93;99464.72;4994343;28;20679;-54
2024/01/02 02:02:53;;;;;;;21.93;12.17;;;;;;;4.41;95.78;99459.59;4995374;28;20208;-55
2024/01/02 02:05:23;;;;;;;22.10;12.87;;;;;;;4.43;95.60;99457.94;4995125;28;20282;-54
2024/01/02 02:07:51;;;;;;;25.57;12.27;;;;;;;4.40;95.62;99455.38;4995098;28;20204;-62
2024/01/02 02:10:20;;;;;;;22.70;11.77;;;;;;;4.40;95.73;99453.66;4994273;28;20188;-53
2024/01/02 02:12:49;;;;;;;21.57;12.47;;;;;;;4.41;95.91;99460.47;4995436;28;20227;-57
2024/01/02 02:15:16;;;;;;;24.37;12.50;;;;;;;4.41;95.82;99457.91;4994798;28;20238;-55
2024/01/02 02:17:46;;;;;;;26.50;12.03;;;;;;;4.43;96.00;99457.94;4993964;28;20204;-54
2024/01/02 02:20:15;;;;;;;20.50;11.13;;;;;;;4.43;96.18;99457.94;4994774;28;20208;-52
2024/01/02 02:22:48;;;;;;;20.43;11.50;;;;;;;4.43;96.07;99457.94;4994570;28;20243;-53
2024/01/02 02:25:17;;;;;;;20.03;11.23;;;;;;;4.45;96.50;99458.78;4995146;28;20660;-62
2024/01/02 02:27:46;;;;;;;21.23;11.33;;;;;;;4.48;96.23;99458.78;4995117;28;20659;-59
2024/01/02 02:30:15;;;;;;;22.20;11.20;;;;;;;4.47;96.38;99452.84;4994743;28;20204;-53
2024/01/02 02:32:43;;;;;;;19.13;10.73;;;;;;;4.50;96.16;99452.00;4994588;28;20258;-53
2024/01/02 02:35:11;;;;;;;21.03;11.03;;;;;;;4.50;96.31;99454.56;4993955;28;20290;-54
2024/01/02 02:37:39;;;;;;;18.23;10.73;;;;;;;4.47;96.09;99459.63;4994777;28;20626;-54
2024/01/02 02:40:09;;;;;;;22.03;11.43;;;;;;;4.48;96.44;99456.22;4994481;28;20207;-56
2024/01/02 02:42:37;;;;;;;18.50;10.53;;;;;;;4.49;96.20;99460.47;4994646;28;20207;-55
2024/01/02 02:45:06;;;;;;;20.20;11.23;;;;;;;4.49;96.42;99453.72;4994222;28;20211;-53
2024/01/02 02:47:34;;;;;;;20.37;11.00;;;;;;;4.47;96.33;99452.84;4994233;28;20287;-52
2024/01/02 02:50:05;;;;;;;20.70;11.10;;;;;;;4.48;96.61;99456.22;4994415;28;20275;-52
2024/01/02 02:52:33;;;;;;;21.63;11.07;;;;;;;4.49;96.96;99451.16;4993580;28;20566;-55
2024/01/02 02:55:02;;;;;;;22.97;11.23;;;;;;;4.50;97.08;99446.91;4994307;28;20388;-56
2024/01/02 02:57:31;;;;;;;17.57;11.27;;;;;;;4.53;97.26;99452.88;4994198;28;20231;-56
2024/01/02 03:00:03;;;;;;;20.77;10.67;;;;;;;4.54;97.45;99458.81;4994224;28;20266;-58
2024/01/02 03:02:31;;;;;;;24.43;11.77;;;;;;;4.56;97.09;99457.09;4994164;28;20212;-57
2024/01/02 03:04:59;;;;;;;22.13;11.43;;;;;;;4.57;97.51;99451.19;4993813;28;20211;-56
2024/01/02 03:07:28;;;;;;;23.57;12.03;;;;;;;4.54;96.86;99456.25;4980125;28;20683;-59
2024/01/02 03:09:55;;;;;;;18.13;11.20;;;;;;;4.52;97.32;99457.94;4994050;28;20208;-55
2024/01/02 03:12:24;;;;;;;19.37;11.20;;;;;;;4.53;97.75;99452.03;4994245;28;20617;-53
2024/01/02 03:14:53;;;;;;;25.03;11.40;;;;;;;4.55;98.17;99452.84;4994191;28;20616;-56
2024/01/02 03:17:21;;;;;;;20.90;10.30;;;;;;;4.56;98.46;99449.44;4993806;28;20204;-54
2024/01/02 03:19:49;;;;;;;21.13;11.33;;;;;;;4.54;98.10;99446.91;4993993;28;20570;-57
2024/01/02 03:22:17;;;;;;;22.13;10.97;;;;;;;4.55;98.07;99447.75;4993763;28;20275;-63
2024/01/02 03:24:44;;;;;;;20.13;10.83;;;;;;;4.57;97.89;99441.81;4992813;28;20210;-56
2024/01/02 03:27:13;;;;;;;18.10;11.20;;;;;;;4.60;98.12;99449.50;4993555;28;20690;-57
2024/01/02 03:29:41;;;;;;;19.13;10.47;;;;;;;4.58;97.58;99451.16;4993561;28;20212;-51
2024/01/02 03:32:10;;;;;;;17.13;9.73;;;;;;;4.57;97.62;99453.72;4993634;28;20232;-55
2024/01/02 03:34:38;;;;;;;19.13;10.37;;;;;;;4.56;97.79;99455.41;4993349;28;20749;-54
2024/01/02 03:37:06;;;;;;;18.07;10.87;;;;;;;4.57;97.98;99449.47;4993804;28;20573;-55
2024/01/02 03:39:35;;;;;;;19.63;11.73;;;;;;;4.60;97.98;99451.16;4992369;28;20291;-57
2024/01/02 03:42:03;;;;;;;20.47;10.93;;;;;;;4.61;98.17;99445.25;4993792;28;20674;-55
2024/01/02 03:44:31;;;;;;;18.23;10.00;;;;;;;4.62;98.17;99440.97;4993301;28;20216;-53
2024/01/02 03:46:59;;;;;;;19.53;11.37;;;;;;;4.63;98.24;99450.31;4993793;28;20226;-55
2024/01/02 03:49:29;;;;;;;19.43;11.20;;;;;;;4.64;97.98;99452.91;4993513;28;20663;-54
2024/01/02 03:51:57;;;;;;;22.33;10.83;;;;;;;4.59;97.66;99441.81;4993410;28;20214;-57
2024/01/02 03:54:25;;;;;;;19.30;10.93;;;;;;;4.60;97.25;99446.94;4992332;28;20676;-53
2024/01/02 03:56:53;;;;;;;18.43;10.67;;;;;;;4.59;98.07;99447.75;4993011;28;20218;-56
2024/01/02 03:59:21;;;;;;;17.13;9.73;;;;;;;4.59;98.17;99447.75;4993086;28;20203;-56
2024/01/02 04:01:49;;;;;;;16.97;9.87;;;;;;;4.59;97.90;99450.31;4979272;28;20262;-52
2024/01/02 04:04:16;;;;;;;17.47;10.33;;;;;;;4.59;98.11;99444.38;4993125;28;20509;-57
2024/01/02 04:06:46;;;;;;;17.77;10.30;;;;;;;4.61;97.70;99452.88;4993166;28;20664;-57
2024/01/02 04:09:14;;;;;;;15.60;8.87;;;;;;;4.63;98.27;99445.22;4993337;28;20211;-58
2024/01/02 04:11:42;;;;;;;17.73;9.67;;;;;;;4.65;98.46;99449.50;4993117;28;20570;-54
2024/01/02 04:14:10;;;;;;;20.67;9.53;;;;;;;4.66;98.10;99440.13;4991851;28;20204;-57
2024/01/02 04:16:38;;;;;;;14.90;9.23;;;;;;;4.68;98.32;99439.31;4992816;28;20220;-62
2024/01/02 04:19:08;;;;;;;17.63;9.17;;;;;;;4.67;97.50;99449.47;4993037;28;20227;-53
2024/01/02 04:21:38;;;;;;;12.20;8.63;;;;;;;4.65;98.13;99452.03;4992726;28;20200;-56
2024/01/02 04:24:10;;;;;;;18.77;9.67;;;;;;;4.67;98.04;99441.81;4992540;28;20327;-57
2024/01/02 04:26:37;;;;;;;16.77;8.93;;;;;;;4.65;97.79;99441.84;4992954;28;20215;-55
2024/01/02 04:29:05;;;;;;;19.20;9.77;;;;;;;4.63;98.04;99440.97;4991936;28;20652;-55
2024/01/02 04:31:33;;;;;;;14.93;8.87;;;;;;;4.62;98.01;99444.38;4992839;28;20774;-53
2024/01/02 04:34:01;;;;;;;16.27;8.97;;;;;;;4.62;98.09;99452.03;4992448;28;20203;-54
2024/01/02 04:36:29;;;;;;;18.43;9.63;;;;;;;4.59;97.95;99449.47;4992453;28;20318;-54
2024/01/02 04:38:57;;;;;;;15.53;9.83;;;;;;;4.59;98.58;99445.22;4992236;28;20259;-56
2024/01/02 04:41:26;;;;;;;20.43;10.53;;;;;;;4.57;98.67;99439.28;4992535;28;20262;-53
2024/01/02 04:43:54;;;;;;;18.13;9.57;;;;;;;4.59;98.78;99444.38;4991379;28;20295;-56
2024/01/02 04:46:23;;;;;;;16.20;9.03;;;;;;;4.60;98.49;99446.06;4992341;28;20207;-53
2024/01/02 04:48:51;;;;;;;16.57;9.33;;;;;;;4.58;98.93;99445.22;4992691;28;20667;-55
2024/01/02 04:51:19;;;;;;;17.97;9.97;;;;;;;4.60;98.90;99448.59;4992006;28;20302;-55
2024/01/02 04:53:46;;;;;;;16.40;9.67;;;;;;;4.60;98.78;99454.59;4992651;28;20211;-52
2024/01/02 04:56:14;;;;;;;18.93;11.13;;;;;;;4.61;98.65;99450.34;4992476;28;20690;-53
2024/01/02 04:58:43;;;;;;;20.27;9.93;;;;;;;4.60;98.70;99454.59;4992552;28;20648;-53
2024/01/02 05:01:11;;;;;;;18.00;10.27;;;;;;;4.59;98.73;99449.47;4991433;28;20231;-55
2024/01/02 05:03:40;;;;;;;16.27;8.93;;;;;;;4.58;98.85;99442.66;4992388;28;20635;-55
2024/01/02 05:06:10;;;;;;;17.77;10.00;;;;;;;4.59;99.12;99445.22;4992400;28;20204;-57
2024/01/02 05:08:38;;;;;;;17.57;10.23;;;;;;;4.62;99.20;99441.81;4992378;28;20243;-57
2024/01/02 05:11:06;;;;;;;18.63;9.87;;;;;;;4.67;99.11;99446.94;4992396;28;20624;-55
2024/01/02 05:13:35;;;;;;;18.67;9.93;;;;;;;4.66;98.64;99451.19;4992351;28;20803;-52
2024/01/02 05:16:04;;;;;;;19.10;10.40;;;;;;;4.69;98.72;99452.91;4991221;28;20220;-54
2024/01/02 05:18:32;;;;;;;16.67;9.47;;;;;;;4.70;98.46;99446.94;4992499;28;20541;-57
2024/01/02 05:21:00;;;;;;;19.03;10.47;;;;;;;4.69;98.56;99453.75;4992505;28;20658;-53
2024/01/02 05:23:28;;;;;;;17.83;10.10;;;;;;;4.69;98.30;99458.00;4991969;28;20239;-54
2024/01/02 05:25:56;;;;;;;16.43;10.07;;;;;;;4.71;98.45;99453.75;4992159;28;20204;-59
2024/01/02 05:28:24;;;;;;;17.20;10.37;;;;;;;4.72;98.92;99453.78;4992326;28;20211;-56
2024/01/02 05:30:52;;;;;;;17.50;10.60;;;;;;;4.73;98.26;99463.13;4992550;28;20652;-55
2024/01/02 05:33:21;;;;;;;21.70;10.67;;;;;;;4.74;98.55;99459.72;4990428;28;20208;-56
2024/01/02 05:35:49;;;;;;;21.20;11.13;;;;;;;4.77;98.61;99459.72;4991977;28;20220;-54
2024/01/02 05:38:17;;;;;;;17.07;10.30;;;;;;;4.76;98.79;99463.13;4991908;28;20272;-56
2024/01/02 05:40:45;;;;;;;20.83;11.13;;;;;;;4.74;98.01;99462.25;4992055;28;20278;-57
2024/01/02 05:43:13;;;;;;;17.47;10.50;;;;;;;4.75;98.18;99466.53;4991916;28;20718;-60
2024/01/02 05:45:43;;;;;;;19.10;11.50;;;;;;;4.74;97.94;99463.97;4992451;28;20227;-55
2024/01/02 05:48:11;;;;;;;22.60;11.00;;;;;;;4.72;98.38;99461.41;4995692;28;20667;-55
2024/01/02 05:50:43;;;;;;;18.17;11.30;;;;;;;4.74;98.64;99463.97;4994966;28;20204;-55
2024/01/02 05:53:11;;;;;;;17.93;10.83;;;;;;;4.74;98.89;99453.75;4994367;28;20212;-52
2024/01/02 05:55:39;;;;;;;20.37;10.90;;;;;;;4.77;99.14;99466.53;4995587;28;20695;-57
2024/01/02 05:58:07;;;;;;;16.30;11.53;;;;;;;4.75;98.45;99466.53;4995592;28;20208;-51
2024/01/02 06:00:36;;;;;;;18.23;11.17;;;;;;;4.76;98.74;99473.34;4995576;28;20212;-53
2024/01/02 06:03:04;;;;;;;15.17;10.23;;;;;;;4.78;99.06;99468.22;4986550;28;20210;-60
2024/01/02 06:05:32;;;;;;;17.60;11.10;;;;;;;4.76;99.00;99470.78;4995326;28;20678;-57
2024/01/02 06:08:02;;;;;;;15.37;9.93;;;;;;;4.75;99.25;99476.75;4995513;28;20250;-55
2024/01/02 06:10:29;;;;;;;17.43;10.77;;;;;;;4.70;98.95;99458.00;4994568;28;20409;-51
2024/01/02 06:12:57;;;;;;;16.47;10.03;;;;;;;4.68;99.20;99471.63;4995050;28;20214;-58
2024/01/02 06:15:25;;;;;;;14.93;9.43;;;;;;;4.63;99.47;99469.03;4994851;28;20330;-54
2024/01/02 06:17:53;;;;;;;17.20;10.57;;;;;;;4.65;100.00;99463.97;4995113;28;20247;-53
2024/01/02 06:20:21;;;;;;;17.63;10.93;;;;;;;4.64;100.00;99468.22;4995154;28;20735;-56
2024/01/02 06:22:49;;;;;;;16.67;9.90;;;;;;;4.57;99.77;99461.38;4994865;28;20239;-55
2024/01/02 06:25:19;;;;;;;17.67;10.37;;;;;;;4.60;100.00;99463.91;4995134;28;20630;-53
2024/01/02 06:27:46;;;;;;;18.17;10.63;;;;;;;4.60;100.00;99463.91;4993551;28;20295;-57
2024/01/02 06:30:14;;;;;;;18.63;11.03;;;;;;;4.62;100.00;99464.78;4994968;28;20575;-55
2024/01/02 06:32:42;;;;;;;16.13;10.73;;;;;;;4.61;100.00;99468.19;4994746;28;20204;-55
2024/01/02 06:35:11;;;;;;;18.97;12.03;;;;;;;4.64;100.00;99475.88;4976101;28;20561;-55
2024/01/02 06:37:41;;;;;;;18.83;10.60;;;;;;;4.62;100.00;99469.03;4986606;28;20224;-53
2024/01/02 06:40:11;;;;;;;20.33;10.37;;;;;;;4.64;99.95;99470.75;4994603;28;20207;-54
2024/01/02 06:42:41;;;;;;;16.23;10.73;;;;;;;4.65;100.00;99476.72;4994641;28;20208;-56
2024/01/02 06:45:09;;;;;;;16.83;11.27;;;;;;;4.65;100.00;99474.16;4979937;28;20218;-54
2024/01/02 06:47:37;;;;;;;14.63;9.80;;;;;;;4.67;100.00;99482.66;4995142;28;20248;-55
2024/01/02 06:50:06;;;;;;;16.23;10.50;;;;;;;4.69;100.00;99486.94;4994311;28;20226;-58
2024/01/02 06:52:34;;;;;;;15.90;10.23;;;;;;;4.69;100.00;99479.28;4993913;28;20200;-57
2024/01/02 06:55:04;;;;;;;17.37;9.57;;;;;;;4.69;99.93;99474.16;4993811;28;20207;-62
2024/01/02 06:57:32;;;;;;;16.63;10.20;;;;;;;4.67;99.70;99477.56;4993616;28;20231;-61
2024/01/02 07:00:01;;;;;;;16.27;10.17;;;;;;;4.62;99.71;99476.69;4993969;28;20582;-58
2024/01/02 07:02:31;;;;;;;15.67;9.47;;;;;;;4.59;100.00;99474.97;4992493;28;20204;-59
2024/01/02 07:05:00;;;;;;;15.20;10.00;;;;;;;4.58;100.00;99478.38;4994058;28;20724;-58
2024/01/02 07:07:28;;;;;;;13.50;8.40;;;;;;;4.58;100.00;99474.13;4993741;28;20203;-58
2024/01/02 07:09:56;;;;;;;12.00;8.80;;;;;;;4.60;100.00;99481.78;4993395;28;20212;-62
2024/01/02 07:12:24;;;;;;;10.60;8.53;;;;;;;4.63;100.00;99483.50;4993715;28;20644;-63
2024/01/02 07:14:52;;;;;;;13.97;8.60;;;;;;;4.62;100.00;99474.16;4993479;28;20278;-64
2024/01/02 07:17:21;;;;;;;13.37;8.60;;;;;;;4.64;100.00;99477.53;4990565;28;20247;-63
2024/01/02 07:19:49;;;;;;;12.60;8.60;;;;;;;4.63;100.00;99473.28;4993092;28;20250;-62
2024/01/02 07:22:17;;;;;;;14.50;9.17;;;;;;;4.63;100.00;99470.75;4993223;28;20641;-63
2024/01/02 07:24:48;;;;;;;13.17;8.03;;;;;;;4.63;100.00;99471.59;4992991;28;20259;-62
2024/01/02 07:27:16;;;;;;;10.93;7.67;;;;;;;4.65;99.85;99477.56;4993009;28;20212;-60
2024/01/02 07:29:46;;;;;;;10.43;7.77;;;;;;;4.65;99.62;99469.91;4990886;28;20220;-66
2024/01/02 07:32:14;;;;;;;11.30;8.00;;;;;;;4.67;99.42;99475.84;4993366;28;20250;-66
2024/01/02 07:34:46;;;;;;;9.47;7.27;;;;;;;4.67;99.20;99472.44;4992888;28;20299;-65
2024/01/02 07:37:14;;;;;;;14.93;8.03;;;;;;;4.68;99.02;99480.13;4992847;28;20270;-63
2024/01/02 07:39:45;;;;;;;9.50;6.90;;;;;;;4.66;98.99;99474.16;4992970;28;20212;-63
2024/01/02 07:42:13;;;;;;;9.67;7.47;;;;;;;4.66;98.92;99475.84;4993198;28;20199;-64
2024/01/02 07:44:41;;;;;;;9.43;6.40;;;;;;;4.65;99.52;99475.00;4992921;28;20212;-65
2024/01/02 07:47:09;;;;;;;11.80;7.63;;;;;;;4.67;98.90;99467.34;4991205;28;20250;-63
2024/01/02 07:49:37;;;;;;;7.57;6.30;;;;;;;4.67;99.04;99478.41;4992750;28;20239;-63
2024/01/02 07:52:07;;;;;;;9.77;6.10;;;;;;;4.71;99.13;99479.25;4992807;28;20223;-61
2024/01/02 07:54:37;;;;;;;9.80;6.90;;;;;;;4.71;98.61;99472.47;4991222;28;20286;-62
2024/01/02 07:57:05;;;;;;;8.50;5.77;;;;;;;4.72;98.55;99479.28;4992313;28;20267;-63
2024/01/02 07:59:37;;;;;;;7.40;5.90;;;;;;;4.71;98.35;99475.00;4992683;28;20216;-62
2024/01/02 08:02:05;;;;;;;9.57;5.90;;;;;;;4.70;97.92;99477.56;4992305;28;20208;-62
2024/01/02 08:04:33;;;;;;;7.47;5.67;;;;;;;4.70;98.29;99482.66;4992829;28;20738;-67
2024/01/02 08:07:02;;;;;;;8.40;5.93;;;;;;;4.71;97.87;99485.22;4992682;28;20209;-65
2024/01/02 08:09:31;;;;;;;8.63;5.60;;;;;;;4.72;97.73;99489.50;4990786;28;20915;-63
2024/01/02 08:11:59;;;;;;;9.03;6.50;;;;;;;4.74;98.08;99490.34;4992278;28;20223;-60
2024/01/02 08:14:27;;;;;;;10.27;7.10;;;;;;;4.74;98.37;99492.88;4992579;28;20605;-61
2024/01/02 08:16:55;;;;;;;11.60;6.17;;;;;;;4.72;98.38;99486.09;4992106;28;20247;-63
2024/01/02 08:19:23;;;;;;;9.83;7.03;;;;;;;4.74;98.84;99482.69;4992062;28;20199;-68
2024/01/02 08:21:50;;;;;;;11.80;8.00;;;;;;;4.77;99.18;99484.41;4992118;28;20204;-63
2024/01/02 08:24:18;;;;;;;12.33;8.07;;;;;;;4.76;99.06;99478.44;4990924;28;20242;-64
2024/01/02 08:26:48;;;;;;;10.73;8.37;;;;;;;4.77;98.85;99479.28;4992242;28;20337;-62
2024/01/02 08:29:16;;;;;;;12.20;7.90;;;;;;;4.75;98.84;99476.75;4991944;28;20284;-65
2024/01/02 08:31:45;;;;;;;12.93;8.87;;;;;;;4.79;99.20;99478.47;4992646;28;20211;-64
2024/01/02 08:34:14;;;;;;;13.03;8.73;;;;;;;4.80;99.07;99480.16;4992216;28;20258;-63
2024/01/02 08:36:42;;;;;;;13.97;9.23;;;;;;;4.80;98.74;99475.06;4992105;28;20616;-61
2024/01/02 08:39:10;;;;;;;13.70;9.40;;;;;;;4.82;98.53;99470.81;4992050;28;20220;-60
2024/01/02 08:41:38;;;;;;;13.50;9.67;;;;;;;4.79;98.52;99483.56;4990796;28;20216;-67
2024/01/02 08:44:08;;;;;;;15.90;9.67;;;;;;;4.80;98.77;99485.25;4992293;28;20239;-62
2024/01/02 08:46:36;;;;;;;15.10;10.13;;;;;;;4.84;99.28;99481.88;4991702;28;20204;-61
2024/01/02 08:49:06;;;;;;;15.30;10.70;;;;;;;4.85;98.82;99480.16;4991841;28;20204;-65
2024/01/02 08:51:34;;;;;;;15.57;10.57;;;;;;;4.85;98.93;99486.09;4991647;28;20212;-63
2024/01/02 08:54:02;;;;;;;14.70;10.57;;;;;;;4.84;98.80;99481.88;4991884;28;20200;-63
2024/01/02 08:56:30;;;;;;;17.23;11.00;;;;;;;4.84;99.07;99481.88;4990464;28;20207;-63
2024/01/02 08:58:58;;;;;;;15.60;10.47;;;;;;;4.85;99.05;99473.34;4991731;28;20580;-63
2024/01/02 09:01:28;;;;;;;17.37;10.97;;;;;;;4.90;99.16;99482.72;4991894;28;20279;-62
2024/01/02 09:03:56;;;;;;;16.57;11.17;;;;;;;4.93;98.99;99485.28;4992386;28;20219;-61
2024/01/02 09:06:31;;;;;;;17.97;11.83;;;;;;;4.93;99.24;99482.72;4991759;28;20203;-65
2024/01/02 09:08:59;;;;;;;17.27;11.67;;;;;;;4.96;99.37;99478.47;4991572;28;20242;-63
2024/01/02 09:11:27;;;;;;;18.03;11.47;;;;;;;5.01;98.83;99481.06;4991104;28;20340;-64
2024/01/02 09:13:55;;;;;;;16.37;11.47;;;;;;;5.03;99.22;99487.00;4991624;28;20215;-63
2024/01/02 09:16:31;;;;;;;16.70;11.70;;;;;;;5.05;99.03;99495.53;4991530;28;20200;-62
2024/01/02 09:18:59;;;;;;;17.93;12.27;;;;;;;5.04;98.23;99492.13;4991396;28;20266;-62
2024/01/02 09:21:27;;;;;;;17.70;12.97;;;;;;;5.06;98.21;99498.06;4995243;28;20203;-62
2024/01/02 09:23:56;;;;;;;16.87;12.83;;;;;;;5.09;97.92;99495.53;4995380;28;20660;-61
2024/01/02 09:26:25;;;;;;;19.80;12.53;;;;;;;5.10;98.57;99491.28;4995583;28;20212;-63
2024/01/02 09:28:55;;;;;;;17.23;12.30;;;;;;;5.09;97.22;99494.69;4992760;28;20204;-65
2024/01/02 09:31:25;;;;;;;18.10;13.27;;;;;;;5.08;97.88;99498.06;4995176;28;20284;-64
2024/01/02 09:33:54;;;;;;;17.97;12.33;;;;;;;5.11;97.68;99487.00;4995770;28;20667;-64
2024/01/02 09:36:22;;;;;;;20.53;12.43;;;;;;;5.13;97.14;99486.19;4995529;28;20644;-62
2024/01/02 09:38:50;;;;;;;16.30;12.27;;;;;;;5.16;96.94;99488.75;4995111;28;20251;-65
2024/01/02 09:41:38;;;;;;;19.13;12.47;;;;;;;5.17;97.07;99490.44;4995558;28;20667;-64
2024/01/02 09:44:21;;;;;;;19.77;13.40;;;;;;;5.24;97.62;99492.16;4995406;28;20577;-65
2024/01/02 09:47:00;;;;;;;16.30;12.43;;;;;;;5.36;97.39;99493.00;4994366;28;20219;-65
2024/01/02 09:49:42;;;;;;;18.30;12.37;;;;;;;5.41;96.56;99501.50;4986420;28;20200;-60
2024/01/02 09:52:30;;;;;;;18.87;12.47;;;;;;;5.43;95.21;99503.22;4994882;28;20275;-63
2024/01/02 09:55:08;;;;;;;15.63;11.70;;;;;;;5.40;94.88;99499.81;4995045;28;20203;-62
2024/01/02 09:57:41;;;;;;;19.13;12.17;;;;;;;5.33;95.39;99492.16;4993899;28;20196;-65
2024/01/02 10:00:16;;;;;;;17.53;11.50;;;;;;;5.35;95.96;99499.81;4994938;28;20755;-64
2024/01/02 10:03:12;;;;;;;16.80;11.40;;;;;;;5.37;95.56;99503.22;4983419;28;20243;-64
2024/01/02 10:05:59;;;;;;;15.50;11.13;;;;;;;5.35;95.18;99498.97;4994922;28;20682;-61
2024/01/02 10:08:45;;;;;;;17.27;11.73;;;;;;;5.36;95.85;99500.69;4994816;28;20199;-62
2024/01/02 10:11:28;;;;;;;16.07;11.40;;;;;;;5.37;95.67;99502.38;4983156;28;20204;-62
2024/01/02 10:14:02;;;;;;;17.20;12.13;;;;;;;5.36;96.21;99505.78;4993133;28;20207;-63
2024/01/02 10:16:38;;;;;;;15.53;11.30;;;;;;;5.32;95.85;99495.56;4994603;28;20207;-63
2024/01/02 10:19:13;;;;;;;14.83;11.23;;;;;;;5.32;95.55;99492.16;4994307;28;20227;-63
2024/01/02 10:21:56;;;;;;;16.23;11.40;;;;;;;5.33;96.58;99489.59;4994273;28;20203;-63
2024/01/02 10:24:29;;;;;;;18.83;11.50;;;;;;;5.32;96.58;99490.44;4994578;28;20227;-64
2024/01/02 10:27:10;;;;;;;14.53;10.57;;;;;;;5.34;96.64;99482.81;4994583;28;20211;-64
2024/01/02 10:29:50;;;;;;;14.23;11.40;;;;;;;5.35;96.26;99481.09;4993136;28;20254;-63
2024/01/02 10:32:25;;;;;;;15.50;11.03;;;;;;;5.35;96.09;99473.44;4993666;28;20247;-63
2024/01/02 10:35:04;;;;;;;16.40;10.60;;;;;;;5.36;96.75;99458.09;4994491;28;20212;-67
2024/01/02 10:37:40;;;;;;;16.27;11.73;;;;;;;5.37;96.14;99456.38;4994798;28;20585;-63
2024/01/02 10:40:19;;;;;;;14.77;10.83;;;;;;;5.40;96.10;99456.38;4993904;28;20212;-63
2024/01/02 10:43:03;;;;;;;16.23;10.40;;;;;;;5.43;96.37;99446.19;4994418;28;20239;-64
2024/01/02 10:45:35;;;;;;;16.33;10.40;;;;;;;5.44;95.88;99450.44;4991855;28;20231;-64
2024/01/02 10:48:22;;;;;;;13.50;10.30;;;;;;;5.40;95.36;99443.63;4994026;28;20200;-64
2024/01/02 10:50:58;;;;;;;13.37;10.83;;;;;;;5.37;95.14;99441.06;4994373;28;20651;-62
2024/01/02 10:53:50;;;;;;;17.77;11.07;;;;;;;5.38;95.44;99428.31;4994178;28;20677;-63
2024/01/02 10:56:30;;;;;;;13.23;10.27;;;;;;;5.38;95.52;99422.34;4992796;28;20662;-65
2024/01/02 10:59:04;;;;;;;15.70;10.77;;;;;;;5.44;95.01;99440.19;4994126;28;20679;-64
2024/01/02 11:01:37;;;;;;;14.03;10.40;;;;;;;5.41;94.59;99429.97;4993800;28;20214;-64
2024/01/02 11:04:17;;;;;;;14.57;10.43;;;;;;;5.43;95.59;99425.75;4993993;28;20200;-63
2024/01/02 11:06:49;;;;;;;15.63;10.43;;;;;;;5.46;94.57;99425.75;4993496;28;20215;-64
2024/01/02 11:09:26;;;;;;;14.60;11.23;;;;;;;5.45;95.17;99427.44;4984171;28;20212;-65
2024/01/02 11:11:56;;;;;;;17.93;11.23;;;;;;;5.48;95.19;99429.13;4993630;28;20214;-64
2024/01/02 11:14:43;;;;;;;17.57;12.13;;;;;;;5.49;94.81;99429.16;4987274;28;20238;-65
2024/01/02 11:17:14;;;;;;;20.30;12.83;;;;;;;5.49;94.67;99425.75;4993405;28;20208;-63
2024/01/02 11:19:52;;;;;;;18.87;12.23;;;;;;;5.48;94.78;99424.03;4993876;28;20279;-63
2024/01/02 11:22:29;;;;;;;20.73;12.13;;;;;;;5.45;95.01;99419.78;4988919;28;20290;-64
2024/01/02 11:25:04;;;;;;;17.13;12.90;;;;;;;5.46;95.02;99420.63;4993383;28;20250;-63
2024/01/02 11:27:33;;;;;;;18.40;13.07;;;;;;;5.43;95.21;99421.47;4993151;28;20203;-65
2024/01/02 11:30:05;;;;;;;17.90;12.90;;;;;;;5.42;95.66;99430.00;4993439;28;20609;-65
2024/01/02 11:32:46;;;;;;;21.97;13.53;;;;;;;5.39;96.05;99429.16;4992972;28;20235;-65
2024/01/02 11:35:14;;;;;;;18.20;13.80;;;;;;;5.36;95.88;99424.03;4993121;28;20278;-63
2024/01/02 11:37:49;;;;;;;20.30;13.93;;;;;;;5.37;96.42;99423.19;4993496;28;20907;-65
2024/01/02 11:40:32;;;;;;;19.57;14.10;;;;;;;5.33;96.27;99418.06;4993162;28;20219;-63